Arverne, New York
Current Conditions -  °F | °C
As of 10:51 PM on Saturday 25 Oct 2014 (Local Time) from KJFK Reporting Station
Few Clouds Few Clouds  
Wind Chill: 61°   Ceiling: Unl
Heat Index: 61°   Visibility: 10mi
Dew Point: 47°   Wind: 18mph
Humidity: 60%   Direction: 230°SW
Pressure: 29.61"   Gusts: NA
Location:  40.59°N, 73.8°W
Report Text: KJFK 260251Z 23016KT 10SM FEW250 16/08 A2961 RMK AO2 SLP025 T01610083 57017
Loading
Personal Weather Stations






























Interactive Weather Map
Tropical Storm Tracking
New forecast layout! Learn more

10-Day Weather Forecast

Advertisements
Track Severe Weather on mobile